Terminal Aerodrome Forecast
Issued by NWS Amarillo, TX

Home | Current Version | Previous Version | Text Only | Print | Product List | Glossary On
Versions: 1 2 3 4 5 6 7 8 9 10 11 12 13 14 15 16 17 18 19 20 21 22
000
FTUS44 KAMA 072300 RRA
TAFAMA
TAF
KAMA 072342Z 0800/0824 05009KT 2SM HZ SCT020 BKN100
      TEMPO 0800/0803 4SM
     FM080300 14005KT 1SM BR OVC009
     FM081300 17011KT P6SM BKN070=

USA.gov is the U.S. government's official web portal to all federal, state and local government web resources and services.